createdAt,value
2019-03-09T00:02:10.416Z,75.29
2019-03-09T00:04:42.421Z,75.11
2019-03-09T00:07:14.411Z,75.17
2019-03-09T00:09:46.656Z,74.88
2019-03-09T00:12:18.630Z,75.41
2019-03-09T00:14:50.671Z,75.99
2019-03-09T00:17:22.750Z,76.11
2019-03-09T00:19:56.994Z,76.39
2019-03-09T00:22:28.993Z,76.26
2019-03-09T00:25:14.177Z,76.15
2019-03-09T00:27:50.968Z,76.08
2019-03-09T00:30:42.567Z,76.05
2019-03-09T00:33:14.638Z,75.96
2019-03-09T00:35:47.924Z,76.14
2019-03-09T00:38:19.912Z,76.19
2019-03-09T00:40:51.929Z,76.10
2019-03-09T00:43:23.926Z,75.83
2019-03-09T00:45:55.909Z,75.44
2019-03-09T00:48:27.938Z,75.52
2019-03-09T00:50:59.939Z,75.31
2019-03-09T00:53:31.943Z,75.82
2019-03-09T00:56:04.041Z,76.04
2019-03-09T00:58:36.032Z,76.03
2019-03-09T01:01:08.068Z,76.00
2019-03-09T01:03:40.136Z,75.96
2019-03-09T01:06:12.124Z,75.63
2019-03-09T01:08:44.119Z,75.99
2019-03-09T01:11:16.121Z,76.22
2019-03-09T01:13:48.200Z,76.37
2019-03-09T01:16:20.185Z,76.33
2019-03-09T01:18:52.179Z,76.28
2019-03-09T01:21:24.187Z,75.78
2019-03-09T01:23:56.154Z,76.02
2019-03-09T01:26:28.420Z,76.27
2019-03-09T01:29:00.408Z,76.26
2019-03-09T01:31:33.605Z,76.19
2019-03-09T01:34:05.587Z,75.46
2019-03-09T01:36:37.646Z,75.87
2019-03-09T01:39:09.586Z,75.90
2019-03-09T01:41:41.576Z,75.72
2019-03-09T01:44:13.528Z,75.62
2019-03-09T01:46:45.557Z,75.79
2019-03-09T01:49:17.574Z,75.92
2019-03-09T01:51:49.608Z,75.96
2019-03-09T01:54:21.620Z,75.83
2019-03-09T01:56:53.619Z,75.78
2019-03-09T01:59:25.609Z,75.56
2019-03-09T02:01:57.620Z,75.35
2019-03-09T02:04:29.581Z,75.25
2019-03-09T02:07:01.570Z,74.83
2019-03-09T02:09:33.560Z,73.82
2019-03-09T02:12:05.529Z,73.57
2019-03-09T02:14:37.512Z,72.95
2019-03-09T02:17:09.507Z,71.64
2019-03-09T02:19:41.480Z,71.32
2019-03-09T02:22:13.455Z,70.97
2019-03-09T02:24:45.452Z,70.91
2019-03-09T02:27:17.428Z,70.19
2019-03-09T02:29:49.420Z,69.19
2019-03-09T02:32:21.450Z,67.72
2019-03-09T02:34:53.501Z,67.44
2019-03-09T02:37:25.458Z,67.05
2019-03-09T02:40:17.038Z,66.30
2019-03-09T02:42:49.016Z,66.04
2019-03-09T02:48:04.262Z,65.89
2019-03-09T02:53:16.430Z,66.09
2019-03-09T02:55:48.431Z,65.68
2019-03-09T02:58:20.388Z,65.44
2019-03-09T03:03:44.088Z,65.39
2019-03-09T03:06:16.080Z,65.60
2019-03-09T03:08:48.068Z,65.70
2019-03-09T03:11:20.060Z,65.46
2019-03-09T03:13:52.032Z,65.89
2019-03-09T03:16:24.022Z,65.87
2019-03-09T03:18:56.012Z,65.89
2019-03-09T03:21:28.019Z,65.14
2019-03-09T03:24:00.031Z,64.26
2019-03-09T03:26:31.992Z,64.60
2019-03-09T03:29:03.965Z,64.42
2019-03-09T03:31:35.977Z,64.34
2019-03-09T03:34:07.982Z,64.36
2019-03-09T03:36:39.953Z,64.66
2019-03-09T03:39:11.912Z,64.96
2019-03-09T03:41:43.894Z,65.03
2019-03-09T03:44:35.556Z,64.85
2019-03-09T03:47:07.642Z,64.59
2019-03-09T03:49:39.598Z,64.87
2019-03-09T03:52:11.610Z,65.16
2019-03-09T03:54:43.586Z,65.14
2019-03-09T03:57:15.572Z,64.95
2019-03-09T03:59:47.552Z,64.81
2019-03-09T04:02:19.546Z,64.25
2019-03-09T04:04:51.495Z,64.23
2019-03-09T04:07:23.490Z,64.58
2019-03-09T04:09:55.455Z,64.60
2019-03-09T04:12:27.440Z,64.14
2019-03-09T04:14:59.412Z,63.17
2019-03-09T04:17:31.424Z,62.96
2019-03-09T04:20:03.582Z,63.36
2019-03-09T04:22:35.565Z,63.23
2019-03-09T04:28:20.524Z,63.30
2019-03-09T04:30:52.475Z,63.52
2019-03-09T04:33:24.472Z,63.43
2019-03-09T04:35:56.419Z,62.47
2019-03-09T04:38:28.403Z,62.14
2019-03-09T04:41:00.366Z,62.33
2019-03-09T04:43:32.354Z,62.13
2019-03-09T04:46:04.352Z,61.35
2019-03-09T04:48:36.332Z,61.00
2019-03-09T04:51:08.303Z,61.27
2019-03-09T04:53:40.278Z,61.01
2019-03-09T04:56:12.278Z,60.60
2019-03-09T04:58:44.269Z,60.84
2019-03-09T05:01:16.243Z,59.99
2019-03-09T05:04:16.339Z,60.50
2019-03-09T05:06:48.325Z,60.89
2019-03-09T05:09:42.750Z,60.43
2019-03-09T05:12:14.677Z,61.10
2019-03-09T05:14:46.665Z,61.53
2019-03-09T05:17:18.651Z,61.00
2019-03-09T05:19:50.822Z,61.78
2019-03-09T05:22:22.799Z,62.13
2019-03-09T05:24:54.791Z,62.13
2019-03-09T05:27:26.764Z,61.70
2019-03-09T05:29:58.756Z,62.28
2019-03-09T05:32:30.746Z,62.48
2019-03-09T05:35:02.872Z,63.94
2019-03-09T05:37:42.878Z,62.73
2019-03-09T05:40:08.766Z,64.16
2019-03-09T05:42:40.729Z,65.49
2019-03-09T05:45:12.747Z,65.94
2019-03-09T05:47:44.734Z,67.28
2019-03-09T05:50:16.803Z,68.10
2019-03-09T05:52:55.645Z,69.17
2019-03-09T05:55:27.640Z,68.55
2019-03-09T05:57:59.647Z,69.67
2019-03-09T06:03:11.865Z,70.69
2019-03-09T06:06:22.763Z,70.90
2019-03-09T06:08:54.743Z,71.59
2019-03-09T06:11:26.734Z,72.15
2019-03-09T06:13:58.715Z,72.32
2019-03-09T06:16:30.691Z,72.19
2019-03-09T06:19:02.691Z,72.19
2019-03-09T06:21:34.667Z,71.48
2019-03-09T06:24:06.659Z,71.10
2019-03-09T06:26:38.646Z,71.59
2019-03-09T06:29:10.707Z,71.63
2019-03-09T06:32:21.658Z,71.11
2019-03-09T06:34:53.644Z,71.30
2019-03-09T06:37:25.673Z,70.03
2019-03-09T06:39:57.648Z,69.76
2019-03-09T06:42:41.471Z,70.40
2019-03-09T06:45:14.900Z,69.35
2019-03-09T06:47:46.910Z,69.68
2019-03-09T06:50:19.692Z,69.99
2019-03-09T06:52:51.704Z,69.25
2019-03-09T06:55:23.706Z,69.49
2019-03-09T06:57:55.674Z,69.19
2019-03-09T07:00:30.205Z,68.80
2019-03-09T07:03:02.220Z,69.35
2019-03-09T07:05:34.224Z,68.98
2019-03-09T07:08:06.220Z,69.09
2019-03-09T07:10:38.227Z,69.20
2019-03-09T07:13:10.223Z,68.88
2019-03-09T07:15:43.600Z,69.19
2019-03-09T07:18:36.102Z,69.64
2019-03-09T07:21:08.125Z,68.86
2019-03-09T07:23:40.087Z,69.26
2019-03-09T07:26:12.078Z,69.74
2019-03-09T07:28:44.090Z,68.80
2019-03-09T07:31:16.125Z,69.09
2019-03-09T07:34:12.375Z,69.48
2019-03-09T07:36:44.988Z,69.43
2019-03-09T07:39:17.060Z,69.64
2019-03-09T07:41:49.090Z,69.86
2019-03-09T07:44:21.159Z,69.82
2019-03-09T07:46:53.178Z,69.58
2019-03-09T07:49:25.178Z,69.53
2019-03-09T07:51:57.189Z,69.47
2019-03-09T07:54:29.188Z,69.32
2019-03-09T07:57:01.199Z,68.81
2019-03-09T07:59:33.322Z,68.60
2019-03-09T08:02:05.432Z,68.48
2019-03-09T08:04:37.463Z,68.73
2019-03-09T08:07:09.496Z,68.98
2019-03-09T08:09:41.504Z,68.74
2019-03-09T08:12:13.536Z,69.01
2019-03-09T08:14:45.568Z,68.51
2019-03-09T08:17:17.651Z,68.69
2019-03-09T08:19:49.649Z,68.73
2019-03-09T08:22:21.656Z,67.91
2019-03-09T08:24:53.656Z,67.44
2019-03-09T08:27:25.703Z,67.23
2019-03-09T08:29:57.687Z,67.35
2019-03-09T08:32:29.710Z,67.43
2019-03-09T08:35:01.680Z,66.88
2019-03-09T08:37:33.659Z,67.37
2019-03-09T08:40:06.489Z,66.98
2019-03-09T08:42:38.513Z,67.15
2019-03-09T08:45:11.167Z,66.76
2019-03-09T08:47:51.581Z,66.38
2019-03-09T08:50:18.544Z,67.02
2019-03-09T08:52:50.613Z,66.27
2019-03-09T08:55:22.650Z,65.82
2019-03-09T08:57:54.715Z,66.38
2019-03-09T09:00:30.239Z,65.69
2019-03-09T09:03:02.707Z,65.22
2019-03-09T09:05:34.798Z,65.76
2019-03-09T09:08:06.841Z,65.43
2019-03-09T09:10:38.885Z,64.61
2019-03-09T09:13:10.935Z,64.54
2019-03-09T09:15:42.960Z,64.68
2019-03-09T09:18:14.975Z,65.12
2019-03-09T09:20:47.001Z,64.98
2019-03-09T09:23:19.005Z,64.26
2019-03-09T09:25:51.019Z,64.33
2019-03-09T09:28:23.029Z,63.87
2019-03-09T09:30:55.021Z,64.30
2019-03-09T09:33:27.046Z,64.01
2019-03-09T09:35:59.049Z,63.75
2019-03-09T09:38:31.047Z,63.96
2019-03-09T09:41:03.037Z,63.46
2019-03-09T09:43:35.078Z,62.96
2019-03-09T09:46:07.052Z,63.00
2019-03-09T09:48:39.051Z,63.21
2019-03-09T09:51:11.029Z,63.03
2019-03-09T09:53:43.043Z,62.66
2019-03-09T09:56:15.164Z,62.47
2019-03-09T09:58:47.216Z,62.73
2019-03-09T10:01:19.233Z,62.26
2019-03-09T10:03:51.291Z,61.59
2019-03-09T10:06:23.371Z,61.30
2019-03-09T10:08:55.415Z,61.43
2019-03-09T10:11:27.448Z,61.67
2019-03-09T10:13:59.475Z,62.19
2019-03-09T10:16:51.025Z,61.38
2019-03-09T10:19:23.047Z,61.25
2019-03-09T10:21:55.042Z,61.10
2019-03-09T10:24:27.048Z,61.13
2019-03-09T10:27:18.557Z,60.80
2019-03-09T10:29:50.570Z,60.80
2019-03-09T10:32:22.607Z,60.99
2019-03-09T10:34:54.610Z,61.21
2019-03-09T10:37:26.659Z,60.99
2019-03-09T10:39:58.639Z,61.53
2019-03-09T10:42:30.670Z,60.65
2019-03-09T10:48:15.907Z,60.41
2019-03-09T10:50:48.172Z,60.49
2019-03-09T10:53:20.444Z,60.89
2019-03-09T10:55:52.449Z,60.89
2019-03-09T10:58:24.501Z,60.45
2019-03-09T11:00:56.514Z,59.84
2019-03-09T11:03:28.563Z,59.60
2019-03-09T11:06:00.680Z,59.60
2019-03-09T11:08:33.919Z,59.15
2019-03-09T11:11:05.953Z,59.31
2019-03-09T11:13:37.983Z,58.77
2019-03-09T11:16:09.990Z,59.00
2019-03-09T11:18:42.004Z,59.27
2019-03-09T11:21:14.045Z,59.25
2019-03-09T11:23:47.924Z,59.06
2019-03-09T11:26:20.129Z,58.87
2019-03-09T11:28:52.173Z,58.90
2019-03-09T11:31:24.375Z,58.84
2019-03-09T11:33:56.392Z,59.11
2019-03-09T11:36:28.453Z,58.94
2019-03-09T11:39:00.484Z,59.12
2019-03-09T11:41:36.782Z,58.79
2019-03-09T11:44:08.870Z,59.32
2019-03-09T11:46:42.071Z,58.83
2019-03-09T11:49:15.223Z,58.47
2019-03-09T11:51:47.207Z,58.72
2019-03-09T11:54:19.310Z,58.93
2019-03-09T11:56:53.367Z,59.01
2019-03-09T11:59:25.512Z,58.81
2019-03-09T12:01:57.528Z,58.95
2019-03-09T12:04:29.593Z,58.67
2019-03-09T12:07:01.591Z,58.83
2019-03-09T12:09:33.634Z,58.55
2019-03-09T12:12:05.732Z,58.77
2019-03-09T12:14:37.793Z,58.88
2019-03-09T12:17:12.552Z,58.97
2019-03-09T12:19:43.681Z,58.62
2019-03-09T12:22:15.705Z,59.18
2019-03-09T12:24:51.544Z,59.33
2019-03-09T12:27:23.563Z,59.75
2019-03-09T12:29:55.625Z,59.73
2019-03-09T12:32:27.656Z,59.49
2019-03-09T12:35:01.463Z,59.15
2019-03-09T12:37:33.516Z,59.91
2019-03-09T12:40:06.928Z,59.75
2019-03-09T12:42:38.970Z,60.02
2019-03-09T12:45:11.190Z,59.79
2019-03-09T12:47:43.264Z,60.08
2019-03-09T12:50:16.152Z,60.22
2019-03-09T12:52:48.525Z,60.04
2019-03-09T12:55:20.550Z,59.93
2019-03-09T12:57:52.743Z,59.79
2019-03-09T13:00:24.759Z,60.28
2019-03-09T13:02:56.849Z,60.36
2019-03-09T13:05:28.915Z,60.37
2019-03-09T13:08:00.931Z,60.21
2019-03-09T13:10:33.029Z,59.99
2019-03-09T13:13:05.150Z,60.21
2019-03-09T13:15:37.180Z,60.36
2019-03-09T13:18:11.066Z,60.40
2019-03-09T13:20:43.169Z,60.25
2019-03-09T13:23:15.213Z,60.00
2019-03-09T13:25:47.409Z,60.02
2019-03-09T13:28:19.570Z,59.56
2019-03-09T13:30:51.555Z,59.43
2019-03-09T13:33:23.573Z,59.58
2019-03-09T13:35:55.719Z,59.39
2019-03-09T13:38:29.489Z,59.34
2019-03-09T13:41:01.635Z,59.18
2019-03-09T13:43:33.687Z,58.88
2019-03-09T13:46:05.664Z,58.98
2019-03-09T13:48:37.723Z,58.39
2019-03-09T13:51:09.906Z,57.97
2019-03-09T13:53:42.033Z,58.19
2019-03-09T13:56:14.071Z,58.26
2019-03-09T13:58:46.092Z,58.31
2019-03-09T14:01:18.244Z,58.26
2019-03-09T14:03:50.309Z,58.69
2019-03-09T14:06:22.286Z,58.41
2019-03-09T14:08:54.384Z,58.35
2019-03-09T14:11:28.231Z,58.44
2019-03-09T14:14:00.268Z,58.62
2019-03-09T14:16:32.316Z,58.86
2019-03-09T14:19:04.368Z,59.09
2019-03-09T14:21:36.389Z,59.50
2019-03-09T14:24:08.463Z,60.01
2019-03-09T14:26:40.599Z,60.75
2019-03-09T14:29:12.705Z,61.13
2019-03-09T14:31:44.728Z,61.49
2019-03-09T14:34:17.849Z,61.76
2019-03-09T14:36:50.221Z,63.38
2019-03-09T14:39:22.396Z,66.19
2019-03-09T14:41:54.574Z,66.19
2019-03-09T14:44:26.664Z,67.54
2019-03-09T14:46:58.716Z,69.25
2019-03-09T14:49:31.935Z,70.79
2019-03-09T14:52:04.079Z,70.47
2019-03-09T14:54:36.122Z,71.51
2019-03-09T14:57:08.307Z,72.17
2019-03-09T14:59:41.658Z,72.00
2019-03-09T15:02:13.962Z,73.12
2019-03-09T15:04:46.284Z,72.72
2019-03-09T15:07:18.379Z,72.56
2019-03-09T15:09:50.439Z,73.21
2019-03-09T15:12:22.515Z,73.36
2019-03-09T15:14:54.559Z,72.67
2019-03-09T15:17:26.722Z,72.67
2019-03-09T15:19:58.842Z,72.62
2019-03-09T15:22:30.918Z,71.88
2019-03-09T15:25:03.131Z,71.10
2019-03-09T15:27:35.262Z,71.10
2019-03-09T15:30:09.205Z,70.19
2019-03-09T15:32:41.273Z,69.12
2019-03-09T15:35:14.323Z,70.05
2019-03-09T15:37:46.394Z,70.05
2019-03-09T15:40:18.512Z,69.99
2019-03-09T15:42:50.906Z,67.44
2019-03-09T15:45:22.911Z,67.41
2019-03-09T15:47:54.996Z,67.41
2019-03-09T15:50:27.149Z,67.59
2019-03-09T15:52:59.168Z,68.00
2019-03-09T15:55:31.266Z,68.15
2019-03-09T15:58:03.439Z,67.83
2019-03-09T16:00:35.552Z,67.83
2019-03-09T16:03:09.553Z,67.92
2019-03-09T16:05:41.740Z,67.92
2019-03-09T16:08:13.817Z,67.71
2019-03-09T16:10:45.947Z,67.82
2019-03-09T16:13:17.973Z,67.82
2019-03-09T16:15:50.026Z,67.69
2019-03-09T16:18:23.270Z,67.81
2019-03-09T16:20:55.339Z,68.07
2019-03-09T16:23:27.429Z,68.62
2019-03-09T16:26:00.605Z,68.62
2019-03-09T16:28:32.688Z,67.98
2019-03-09T16:31:05.399Z,68.68
2019-03-09T16:33:37.537Z,69.39
2019-03-09T16:36:09.660Z,68.85
2019-03-09T16:38:41.673Z,68.60
2019-03-09T16:41:14.843Z,68.24
2019-03-09T16:43:46.861Z,68.62
2019-03-09T16:46:18.881Z,69.07
2019-03-09T16:48:50.951Z,69.07
2019-03-09T16:51:23.044Z,69.09
2019-03-09T16:54:14.572Z,68.94
2019-03-09T16:56:46.679Z,68.94
2019-03-09T16:59:18.763Z,69.09
2019-03-09T17:01:50.778Z,68.92
2019-03-09T17:04:22.833Z,69.24
2019-03-09T17:06:54.839Z,69.14
2019-03-09T17:09:26.873Z,69.13
2019-03-09T17:11:58.853Z,69.28
2019-03-09T17:14:30.903Z,69.55
2019-03-09T17:17:02.932Z,68.87
2019-03-09T17:19:34.989Z,68.87
2019-03-09T17:22:07.013Z,68.86
2019-03-09T17:24:39.112Z,68.86
2019-03-09T17:27:30.575Z,68.83
2019-03-09T17:30:02.759Z,68.83
2019-03-09T17:32:34.822Z,68.40
2019-03-09T17:35:07.050Z,68.49
2019-03-09T17:37:39.110Z,68.46
2019-03-09T17:40:11.259Z,68.39
2019-03-09T17:42:43.286Z,68.52
2019-03-09T17:45:16.734Z,68.31
2019-03-09T17:47:48.782Z,68.71
2019-03-09T17:50:20.839Z,69.05
2019-03-09T17:52:52.871Z,68.85
2019-03-09T17:55:24.936Z,69.06
2019-03-09T17:57:56.940Z,69.00
2019-03-09T18:03:08.904Z,69.29
2019-03-09T18:06:00.441Z,68.91
2019-03-09T18:08:32.485Z,69.37
2019-03-09T18:11:05.798Z,69.37
2019-03-09T18:13:37.832Z,69.14
2019-03-09T18:16:09.901Z,69.32
2019-03-09T18:18:42.068Z,69.32
2019-03-09T18:21:14.101Z,68.95
2019-03-09T18:23:46.156Z,68.85
2019-03-09T18:26:18.227Z,68.55
2019-03-09T18:28:50.218Z,68.74
2019-03-09T18:31:22.285Z,69.06
2019-03-09T18:33:54.287Z,69.33
2019-03-09T18:36:26.538Z,69.05
2019-03-09T18:38:58.541Z,69.25
2019-03-09T18:41:30.582Z,68.92
2019-03-09T18:44:02.820Z,68.39
2019-03-09T18:46:34.963Z,68.74
2019-03-09T18:49:08.227Z,68.74
2019-03-09T18:51:40.313Z,68.86
2019-03-09T18:54:12.351Z,67.95
2019-03-09T18:56:44.363Z,68.31
2019-03-09T18:59:16.420Z,67.83
2019-03-09T19:01:48.433Z,67.89
2019-03-09T19:04:20.569Z,67.69
2019-03-09T19:06:52.595Z,67.38
2019-03-09T19:09:24.907Z,67.08
2019-03-09T19:11:58.877Z,66.83
2019-03-09T19:14:31.075Z,66.77
2019-03-09T19:17:03.137Z,67.08
2019-03-09T19:19:35.534Z,67.28
2019-03-09T19:22:07.752Z,67.20
2019-03-09T19:24:40.440Z,67.13
2019-03-09T19:27:13.569Z,67.23
2019-03-09T19:29:45.619Z,67.23
2019-03-09T19:32:17.683Z,67.14
2019-03-09T19:34:51.676Z,67.14
2019-03-09T19:37:23.750Z,67.16
2019-03-09T19:39:55.846Z,67.10
2019-03-09T19:42:27.972Z,67.34
2019-03-09T19:45:00.003Z,67.34
2019-03-09T19:47:32.137Z,67.74
2019-03-09T19:50:05.423Z,67.74
2019-03-09T19:52:37.559Z,67.48
2019-03-09T19:55:09.833Z,67.25
2019-03-09T19:57:41.849Z,67.29
2019-03-09T20:00:14.133Z,67.27
2019-03-09T20:02:46.192Z,67.24
2019-03-09T20:05:18.452Z,67.17
2019-03-09T20:07:50.473Z,67.09
2019-03-09T20:10:23.040Z,66.79
2019-03-09T20:12:55.197Z,65.94
2019-03-09T20:15:28.507Z,64.64
2019-03-09T20:18:00.727Z,64.64
2019-03-09T20:20:32.777Z,65.06
2019-03-09T20:23:04.860Z,64.84
2019-03-09T20:25:37.079Z,64.76
2019-03-09T20:28:09.211Z,64.69
2019-03-09T20:30:41.301Z,64.19
2019-03-09T20:33:13.443Z,64.39
2019-03-09T20:35:45.622Z,64.68
2019-03-09T20:38:17.772Z,64.79
2019-03-09T20:40:49.976Z,65.04
2019-03-09T20:43:22.063Z,65.48
2019-03-09T20:45:54.196Z,65.53
2019-03-09T20:48:26.235Z,65.32
2019-03-09T20:50:58.429Z,65.71
2019-03-09T20:53:32.291Z,65.76
2019-03-09T20:56:04.415Z,65.32
2019-03-09T20:58:37.581Z,65.50
2019-03-09T21:01:09.615Z,65.42
2019-03-09T21:03:41.730Z,65.19
2019-03-09T21:06:13.870Z,65.26
2019-03-09T21:08:45.991Z,64.95
2019-03-09T21:11:19.815Z,65.46
2019-03-09T21:13:53.754Z,65.25
2019-03-09T21:16:28.977Z,65.06
2019-03-09T21:19:00.993Z,64.88
2019-03-09T21:21:33.224Z,64.77
2019-03-09T21:24:05.336Z,64.77
2019-03-09T21:26:37.531Z,65.25
2019-03-09T21:29:09.609Z,64.73
2019-03-09T21:31:41.644Z,64.73
2019-03-09T21:34:13.752Z,64.75
2019-03-09T21:36:45.799Z,64.75
2019-03-09T21:39:17.894Z,64.75
2019-03-09T21:41:49.974Z,64.84
2019-03-09T21:44:22.018Z,64.85
2019-03-09T21:46:54.112Z,64.85
2019-03-09T21:49:26.267Z,64.80
2019-03-09T21:51:58.300Z,64.80
2019-03-09T21:54:30.462Z,65.00
2019-03-09T21:57:02.511Z,64.88
2019-03-09T21:59:34.569Z,64.88
2019-03-09T22:02:06.662Z,65.18
2019-03-09T22:04:38.771Z,65.32
2019-03-09T22:07:10.776Z,65.11
2019-03-09T22:09:42.855Z,65.69
2019-03-09T22:12:15.168Z,65.69
2019-03-09T22:14:47.272Z,65.69
2019-03-09T22:17:19.449Z,65.57
2019-03-09T22:19:51.527Z,65.94
2019-03-09T22:22:23.597Z,66.06
2019-03-09T22:24:55.881Z,66.21
2019-03-09T22:27:29.692Z,66.36
2019-03-09T22:30:01.797Z,66.33
2019-03-09T22:32:33.833Z,65.98
2019-03-09T22:35:07.524Z,65.98
2019-03-09T22:37:39.582Z,66.28
2019-03-09T22:40:12.050Z,66.77
2019-03-09T22:42:45.335Z,66.77
2019-03-09T22:45:17.422Z,66.67
2019-03-09T22:47:49.475Z,66.67
2019-03-09T22:50:23.016Z,67.09
2019-03-09T22:52:55.028Z,66.93
2019-03-09T22:55:27.209Z,66.50
2019-03-09T22:57:59.414Z,66.50
2019-03-09T23:00:32.056Z,66.98
2019-03-09T23:03:04.602Z,67.00
2019-03-09T23:05:36.633Z,66.54
2019-03-09T23:08:08.678Z,67.29
2019-03-09T23:10:40.807Z,66.71
2019-03-09T23:13:12.845Z,66.96
2019-03-09T23:15:44.883Z,67.38
2019-03-09T23:18:16.996Z,66.91
2019-03-09T23:20:49.605Z,67.12
2019-03-09T23:23:21.664Z,66.90
2019-03-09T23:25:54.790Z,66.63
2019-03-09T23:28:37.630Z,66.65
2019-03-09T23:31:09.847Z,66.65
2019-03-09T23:33:41.984Z,66.90
2019-03-09T23:36:14.040Z,67.33
2019-03-09T23:38:46.140Z,67.63
2019-03-09T23:41:18.131Z,67.51
2019-03-09T23:43:50.394Z,67.45
2019-03-09T23:46:22.483Z,67.29
2019-03-09T23:48:54.723Z,66.88
2019-03-09T23:51:26.716Z,66.87
2019-03-09T23:53:58.753Z,66.81
2019-03-09T23:56:30.962Z,67.11
2019-03-09T23:59:03.020Z,67.54
